createdAt,value
2023-04-20T00:00:17.790Z,7.70
2023-04-20T00:00:40.485Z,7.70
2023-04-20T00:01:04.164Z,7.80
2023-04-20T00:01:27.523Z,7.70
2023-04-20T00:01:50.395Z,7.70
2023-04-20T00:02:18.155Z,7.70
2023-04-20T00:02:42.162Z,7.70
2023-04-20T00:03:07.441Z,7.70
2023-04-20T00:03:30.500Z,7.70
2023-04-20T00:03:53.650Z,7.70
2023-04-20T00:04:19.505Z,7.70
2023-04-20T00:04:42.769Z,7.70
2023-04-20T00:05:07.778Z,7.70
2023-04-20T00:05:33.309Z,7.70
2023-04-20T00:05:56.031Z,7.70
2023-04-20T00:06:21.910Z,7.70
2023-04-20T00:06:45.614Z,7.70
2023-04-20T00:07:08.325Z,7.70
2023-04-20T00:07:34.139Z,7.60
2023-04-20T00:07:56.892Z,7.70
2023-04-20T00:08:19.684Z,7.70
2023-04-20T00:08:44.631Z,7.70
2023-04-20T00:09:07.365Z,7.70
2023-04-20T00:09:30.226Z,7.70
2023-04-20T00:09:53.023Z,7.70
2023-04-20T00:10:15.782Z,7.60
2023-04-20T00:10:40.031Z,7.60
2023-04-20T00:11:02.729Z,7.60
2023-04-20T00:11:27.671Z,7.60
2023-04-20T00:11:53.565Z,7.60
2023-04-20T00:12:18.779Z,7.60
2023-04-20T00:12:42.786Z,7.60
2023-04-20T00:13:06.128Z,7.60
2023-04-20T00:13:31.043Z,7.60
2023-04-20T00:13:53.764Z,7.60
2023-04-20T00:14:19.014Z,7.60
2023-04-20T00:14:41.731Z,7.60
2023-04-20T00:15:05.847Z,7.60
2023-04-20T00:15:30.998Z,7.70
2023-04-20T00:15:53.765Z,7.70
2023-04-20T00:16:19.041Z,7.70
2023-04-20T00:16:41.848Z,7.70
2023-04-20T00:17:04.677Z,7.70
2023-04-20T00:17:27.563Z,7.60
2023-04-20T00:17:51.969Z,7.60
2023-04-20T00:18:14.864Z,7.60
2023-04-20T00:18:37.633Z,7.60
2023-04-20T00:19:01.281Z,7.60
2023-04-20T00:19:24.109Z,7.60
2023-04-20T00:19:49.092Z,7.60
2023-04-20T00:20:13.313Z,7.60
2023-04-20T00:20:36.207Z,7.50
2023-04-20T00:20:58.903Z,7.50
2023-04-20T00:21:24.398Z,7.50
2023-04-20T00:21:47.651Z,7.50
2023-04-20T00:22:10.440Z,7.50
2023-04-20T00:22:33.148Z,7.50
2023-04-20T00:22:56.516Z,7.50
2023-04-20T00:23:21.606Z,7.50
2023-04-20T00:23:44.334Z,7.40
2023-04-20T00:24:07.651Z,7.40
2023-04-20T00:24:33.387Z,7.50
2023-04-20T00:24:56.112Z,7.50
2023-04-20T00:25:21.372Z,7.50
2023-04-20T00:25:45.591Z,7.50
2023-04-20T00:26:08.241Z,7.50
2023-04-20T00:26:33.196Z,7.50
2023-04-20T00:26:56.814Z,7.50
2023-04-20T00:27:19.915Z,7.50
2023-04-20T00:27:42.601Z,7.50
2023-04-20T00:28:07.845Z,7.50
2023-04-20T00:28:33.614Z,7.50
2023-04-20T00:28:56.377Z,7.50
2023-04-20T00:29:19.356Z,7.50
2023-04-20T00:29:42.292Z,7.50
2023-04-20T00:30:05.940Z,7.50
2023-04-20T00:30:28.643Z,7.50
2023-04-20T00:30:51.391Z,7.50
2023-04-20T00:31:14.225Z,7.50
2023-04-20T00:31:37.065Z,7.50
2023-04-20T00:31:59.821Z,7.50
2023-04-20T00:32:22.674Z,7.60
2023-04-20T00:32:45.560Z,7.60
2023-04-20T00:33:08.495Z,7.60
2023-04-20T00:33:31.757Z,7.50
2023-04-20T00:33:54.635Z,7.60
2023-04-20T00:34:17.443Z,7.60
2023-04-20T00:34:40.167Z,7.60
2023-04-20T00:35:02.932Z,7.60
2023-04-20T00:35:25.952Z,7.60
2023-04-20T00:35:48.756Z,7.60
2023-04-20T00:36:11.426Z,7.60
2023-04-20T00:36:34.187Z,7.60
2023-04-20T00:36:59.369Z,7.60
2023-04-20T00:37:22.125Z,7.60
2023-04-20T00:37:44.913Z,7.60
2023-04-20T00:38:07.737Z,7.50
2023-04-20T00:38:30.549Z,7.60
2023-04-20T00:38:53.279Z,7.60
2023-04-20T00:39:16.426Z,7.60
2023-04-20T00:39:41.917Z,7.60
2023-04-20T00:40:05.754Z,7.50
2023-04-20T00:40:28.489Z,7.60
2023-04-20T00:40:54.258Z,7.50
2023-04-20T00:41:17.143Z,7.50
2023-04-20T00:41:39.997Z,7.60
2023-04-20T00:42:06.676Z,7.50
2023-04-20T00:42:29.543Z,7.50
2023-04-20T00:42:52.476Z,7.50
2023-04-20T00:43:15.356Z,7.50
2023-04-20T00:43:40.303Z,7.50
2023-04-20T00:44:03.046Z,7.50
2023-04-20T00:44:26.087Z,7.50
2023-04-20T00:44:51.094Z,7.50
2023-04-20T00:45:16.037Z,7.50
2023-04-20T00:45:38.756Z,7.50
2023-04-20T00:46:03.784Z,7.50
2023-04-20T00:46:29.068Z,7.50
2023-04-20T00:46:54.886Z,7.50
2023-04-20T00:47:17.609Z,7.50
2023-04-20T00:47:40.733Z,7.50
2023-04-20T00:48:06.283Z,7.40
2023-04-20T00:48:29.272Z,7.50
2023-04-20T00:48:52.067Z,7.50
2023-04-20T00:49:14.761Z,7.40
2023-04-20T00:49:37.627Z,7.50
2023-04-20T00:50:02.602Z,7.50
2023-04-20T00:50:25.776Z,7.50
2023-04-20T00:50:48.560Z,7.50
2023-04-20T00:51:11.376Z,7.50
2023-04-20T00:51:34.706Z,7.50
2023-04-20T00:51:57.886Z,7.50
2023-04-20T00:52:23.206Z,7.50
2023-04-20T00:52:48.331Z,7.50
2023-04-20T00:53:11.041Z,7.50
2023-04-20T00:53:35.916Z,7.50
2023-04-20T00:53:58.645Z,7.50
2023-04-20T00:54:21.307Z,7.50
2023-04-20T00:54:46.245Z,7.50
2023-04-20T00:55:10.029Z,7.50
2023-04-20T00:55:32.706Z,7.50
2023-04-20T00:55:59.250Z,7.50
2023-04-20T00:56:22.171Z,7.50
2023-04-20T00:56:47.457Z,7.50
2023-04-20T00:57:10.572Z,7.50
2023-04-20T00:57:33.269Z,7.70
2023-04-20T00:57:59.206Z,7.50
2023-04-20T00:58:22.181Z,7.50
2023-04-20T00:58:45.286Z,7.50
2023-04-20T00:59:08.352Z,7.50
2023-04-20T00:59:30.990Z,7.50
2023-04-20T00:59:53.785Z,7.50
2023-04-20T01:00:17.381Z,7.50
2023-04-20T01:00:40.814Z,7.50
2023-04-20T01:01:05.984Z,7.50
2023-04-20T01:01:29.206Z,7.50
2023-04-20T01:01:52.072Z,7.60
2023-04-20T01:02:17.985Z,7.50
2023-04-20T01:02:43.297Z,7.60
2023-04-20T01:03:06.330Z,7.60
2023-04-20T01:03:31.745Z,7.60
2023-04-20T01:03:54.710Z,7.70
2023-04-20T01:04:17.682Z,7.60
2023-04-20T01:04:41.468Z,7.60
2023-04-20T01:05:07.005Z,7.60
2023-04-20T01:05:29.766Z,7.60
2023-04-20T01:05:52.502Z,7.60
2023-04-20T01:06:15.622Z,7.60
2023-04-20T01:06:38.581Z,7.60
2023-04-20T01:07:03.789Z,7.60
2023-04-20T01:07:26.659Z,7.60
2023-04-20T01:07:49.821Z,7.60
2023-04-20T01:08:12.594Z,7.60
2023-04-20T01:08:37.878Z,7.60
2023-04-20T01:09:00.544Z,7.60
2023-04-20T01:09:23.351Z,7.60
2023-04-20T01:09:46.104Z,7.60
2023-04-20T01:10:09.568Z,7.50
2023-04-20T01:10:32.406Z,7.50
2023-04-20T01:10:56.734Z,7.60
2023-04-20T01:11:19.542Z,7.60
2023-04-20T01:11:42.213Z,7.60
2023-04-20T01:12:05.228Z,7.60
2023-04-20T01:12:30.191Z,7.60
2023-04-20T01:12:52.961Z,7.70
2023-04-20T01:13:16.036Z,7.70
2023-04-20T01:13:39.704Z,7.70
2023-04-20T01:14:02.430Z,7.70
2023-04-20T01:14:25.151Z,7.70
2023-04-20T01:14:50.081Z,7.60
2023-04-20T01:15:12.882Z,7.70
2023-04-20T01:15:35.679Z,7.60
2023-04-20T01:16:00.314Z,7.60
2023-04-20T01:16:23.490Z,7.60
2023-04-20T01:16:47.554Z,7.60
2023-04-20T01:17:10.349Z,7.60
2023-04-20T01:17:33.639Z,7.60
2023-04-20T01:17:59.640Z,7.60
2023-04-20T01:18:23.201Z,7.60
2023-04-20T01:18:47.381Z,7.60
2023-04-20T01:19:10.460Z,7.60
2023-04-20T01:19:33.287Z,7.60
2023-04-20T01:19:56.003Z,7.60
2023-04-20T01:20:21.202Z,7.60
2023-04-20T01:20:45.077Z,7.70
2023-04-20T01:21:07.856Z,7.70
2023-04-20T01:21:31.393Z,7.70
2023-04-20T01:21:54.411Z,7.70
2023-04-20T01:22:21.404Z,7.70
2023-04-20T01:22:45.866Z,7.70
2023-04-20T01:23:10.825Z,7.70
2023-04-20T01:23:35.466Z,7.70
2023-04-20T01:23:58.245Z,7.70
2023-04-20T01:24:20.967Z,7.70
2023-04-20T01:24:45.921Z,7.70
2023-04-20T01:25:11.623Z,7.70
2023-04-20T01:25:34.349Z,7.60
2023-04-20T01:25:57.013Z,7.60
2023-04-20T01:26:21.446Z,7.60
2023-04-20T01:26:46.655Z,7.60
2023-04-20T01:27:09.563Z,7.60
2023-04-20T01:27:35.286Z,7.60
2023-04-20T01:27:58.052Z,8.00
2023-04-20T01:28:22.928Z,7.60
2023-04-20T01:28:47.893Z,7.60
2023-04-20T01:29:13.813Z,7.60
2023-04-20T01:29:38.799Z,7.60
2023-04-20T01:30:03.721Z,7.60
2023-04-20T01:30:26.741Z,7.60
2023-04-20T01:30:51.969Z,7.60
2023-04-20T01:31:14.775Z,7.60
2023-04-20T01:31:37.641Z,7.60
2023-04-20T01:32:00.804Z,7.60
2023-04-20T01:32:23.600Z,7.60
2023-04-20T01:32:46.547Z,7.60
2023-04-20T01:33:11.403Z,7.60
2023-04-20T01:33:34.172Z,7.70
2023-04-20T01:34:00.165Z,7.60
2023-04-20T01:34:22.925Z,7.70
2023-04-20T01:34:47.908Z,7.60
2023-04-20T01:35:11.211Z,7.60
2023-04-20T01:35:34.108Z,7.60
2023-04-20T01:35:56.873Z,7.60
2023-04-20T01:36:19.693Z,7.60
2023-04-20T01:36:42.425Z,7.60
2023-04-20T01:37:08.342Z,7.60
2023-04-20T01:37:32.590Z,7.60
2023-04-20T01:37:55.491Z,7.60
2023-04-20T01:38:18.765Z,7.70
2023-04-20T01:38:43.789Z,7.70
2023-04-20T01:39:06.799Z,7.70
2023-04-20T01:39:31.382Z,7.70
2023-04-20T01:39:54.116Z,7.60
2023-04-20T01:40:17.235Z,7.70
2023-04-20T01:40:40.038Z,7.70
2023-04-20T01:41:02.885Z,7.60
2023-04-20T01:41:27.843Z,7.60
2023-04-20T01:41:50.919Z,7.60
2023-04-20T01:42:13.632Z,7.50
2023-04-20T01:42:36.320Z,7.50
2023-04-20T01:42:59.043Z,7.50
2023-04-20T01:43:22.199Z,7.50
2023-04-20T01:43:44.957Z,7.50
2023-04-20T01:44:07.770Z,7.50
2023-04-20T01:44:30.576Z,7.40
2023-04-20T01:44:53.296Z,7.40
2023-04-20T01:45:16.471Z,7.40
2023-04-20T01:45:39.181Z,7.40
2023-04-20T01:46:02.018Z,7.40
2023-04-20T01:46:24.711Z,7.40
2023-04-20T01:46:47.540Z,7.40
2023-04-20T01:47:10.336Z,7.30
2023-04-20T01:47:33.099Z,7.30
2023-04-20T01:47:58.901Z,7.30
2023-04-20T01:48:21.604Z,7.30
2023-04-20T01:48:44.344Z,7.30
2023-04-20T01:49:09.366Z,7.30
2023-04-20T01:49:32.149Z,7.30
2023-04-20T01:49:57.029Z,7.30
2023-04-20T01:50:20.059Z,7.20
2023-04-20T01:50:43.018Z,7.30
2023-04-20T01:51:05.929Z,7.30
2023-04-20T01:51:29.525Z,7.30
2023-04-20T01:51:52.390Z,7.30
2023-04-20T01:52:15.217Z,7.30
2023-04-20T01:52:41.713Z,7.20
2023-04-20T01:53:04.498Z,7.20
2023-04-20T01:53:29.671Z,7.20
2023-04-20T01:53:52.438Z,7.20
2023-04-20T01:54:16.269Z,7.20
2023-04-20T01:54:39.037Z,7.20
2023-04-20T01:55:01.736Z,7.20
2023-04-20T01:55:24.591Z,7.20
2023-04-20T01:55:47.780Z,7.20
2023-04-20T01:56:10.656Z,7.20
2023-04-20T01:56:33.294Z,7.20
2023-04-20T01:56:56.520Z,7.20
2023-04-20T01:57:21.691Z,7.20
2023-04-20T01:57:44.814Z,7.20
2023-04-20T01:58:09.936Z,7.20
2023-04-20T01:58:32.838Z,7.10
2023-04-20T01:58:55.918Z,7.20
2023-04-20T01:59:18.759Z,7.20
2023-04-20T01:59:41.760Z,7.20
2023-04-20T02:00:05.943Z,7.20
2023-04-20T02:00:28.644Z,7.20
2023-04-20T02:00:51.434Z,7.20
2023-04-20T02:01:16.743Z,7.10
2023-04-20T02:01:39.473Z,7.20
2023-04-20T02:02:02.323Z,7.20
2023-04-20T02:02:25.385Z,7.20
2023-04-20T02:02:48.286Z,7.20
2023-04-20T02:03:11.372Z,7.20
2023-04-20T02:03:34.796Z,7.20
2023-04-20T02:04:00.276Z,7.10
2023-04-20T02:04:24.386Z,7.10
2023-04-20T02:04:50.109Z,7.20
2023-04-20T02:05:12.882Z,7.10
2023-04-20T02:05:38.098Z,7.10
2023-04-20T02:06:00.850Z,7.20
2023-04-20T02:06:25.759Z,7.10
2023-04-20T02:06:51.774Z,7.10
2023-04-20T02:07:14.537Z,7.20
2023-04-20T02:07:40.974Z,7.10
2023-04-20T02:08:06.180Z,7.10
2023-04-20T02:08:31.266Z,7.10
2023-04-20T02:08:54.000Z,7.20
2023-04-20T02:09:19.755Z,7.10
2023-04-20T02:09:42.559Z,7.10
2023-04-20T02:10:08.174Z,7.10
2023-04-20T02:10:31.001Z,7.10
2023-04-20T02:10:53.737Z,7.10
2023-04-20T02:11:19.066Z,7.10
2023-04-20T02:11:41.790Z,7.10
2023-04-20T02:12:07.771Z,7.00
2023-04-20T02:12:30.548Z,7.10
2023-04-20T02:12:53.283Z,7.00
2023-04-20T02:13:16.050Z,7.00
2023-04-20T02:13:40.990Z,7.10
2023-04-20T02:14:03.737Z,7.00
2023-04-20T02:14:28.924Z,7.00
2023-04-20T02:14:52.320Z,7.00
2023-04-20T02:15:17.434Z,7.00
2023-04-20T02:15:40.092Z,7.00
2023-04-20T02:16:03.388Z,7.10
2023-04-20T02:16:28.659Z,7.10
2023-04-20T02:16:53.389Z,7.10
2023-04-20T02:17:18.688Z,7.10
2023-04-20T02:17:43.998Z,7.10
2023-04-20T02:18:19.406Z,7.10
2023-04-20T02:18:42.090Z,7.10
2023-04-20T02:19:07.089Z,7.10
2023-04-20T02:20:11.279Z,7.10
2023-04-20T02:20:34.051Z,7.20
2023-04-20T02:20:59.533Z,7.20
2023-04-20T02:21:22.350Z,7.20
2023-04-20T02:21:45.357Z,7.20
2023-04-20T02:22:08.111Z,7.20
2023-04-20T02:22:35.064Z,7.20
2023-04-20T02:22:59.243Z,7.20
2023-04-20T02:23:22.096Z,7.20
2023-04-20T02:23:47.151Z,7.20
2023-04-20T02:24:10.038Z,7.20
2023-04-20T02:24:32.796Z,7.20
2023-04-20T02:24:55.508Z,7.20
2023-04-20T02:25:18.245Z,7.20
2023-04-20T02:25:41.124Z,7.20
2023-04-20T02:26:03.912Z,7.20
2023-04-20T02:26:27.045Z,7.10
2023-04-20T02:26:49.773Z,7.20
2023-04-20T02:27:14.688Z,7.10
2023-04-20T02:27:37.461Z,7.10
2023-04-20T02:28:02.400Z,7.10
2023-04-20T02:28:25.472Z,7.10
2023-04-20T02:28:48.173Z,7.20
2023-04-20T02:29:13.240Z,7.20
2023-04-20T02:29:35.990Z,7.20
2023-04-20T02:29:59.211Z,7.10
2023-04-20T02:30:21.932Z,7.10
2023-04-20T02:30:44.813Z,7.20
2023-04-20T02:31:07.693Z,7.20
2023-04-20T02:31:30.501Z,7.20
2023-04-20T02:31:53.346Z,7.20
2023-04-20T02:32:16.165Z,7.20
2023-04-20T02:32:38.960Z,7.20
2023-04-20T02:33:01.815Z,7.20
2023-04-20T02:33:24.641Z,7.30
2023-04-20T02:33:50.030Z,7.30
2023-04-20T02:34:15.263Z,7.30
2023-04-20T02:34:37.991Z,7.30
2023-04-20T02:35:00.711Z,7.30
2023-04-20T02:35:23.614Z,7.20
2023-04-20T02:35:48.580Z,7.20
2023-04-20T02:36:11.355Z,7.30
2023-04-20T02:36:36.604Z,7.20
2023-04-20T02:36:59.321Z,7.20
2023-04-20T02:37:22.077Z,7.20
2023-04-20T02:37:47.296Z,7.20
2023-04-20T02:38:11.443Z,7.20
2023-04-20T02:38:34.248Z,7.20
2023-04-20T02:38:56.966Z,7.20
2023-04-20T02:39:20.060Z,7.20
2023-04-20T02:39:43.250Z,7.20
2023-04-20T02:40:08.514Z,7.20
2023-04-20T02:40:35.246Z,7.20
2023-04-20T02:41:00.488Z,7.20
2023-04-20T02:41:23.290Z,7.20
2023-04-20T02:41:48.568Z,7.20
2023-04-20T02:42:11.373Z,7.20
2023-04-20T02:42:34.145Z,7.20
2023-04-20T02:42:56.938Z,7.20
2023-04-20T02:43:22.708Z,7.20
2023-04-20T02:43:45.504Z,7.20
2023-04-20T02:44:08.327Z,7.20
2023-04-20T02:44:33.387Z,7.20
2023-04-20T02:44:56.164Z,7.30
2023-04-20T02:45:19.046Z,7.30
2023-04-20T02:45:41.800Z,7.30
2023-04-20T02:46:04.842Z,7.20
2023-04-20T02:46:30.286Z,7.30
2023-04-20T02:46:53.355Z,7.30
2023-04-20T02:47:18.333Z,7.30
2023-04-20T02:47:43.713Z,7.30
2023-04-20T02:48:08.931Z,7.30
2023-04-20T02:48:31.765Z,7.30
2023-04-20T02:48:56.568Z,7.40
2023-04-20T02:49:19.499Z,7.30
2023-04-20T02:49:42.612Z,7.30
2023-04-20T02:50:06.677Z,7.30
2023-04-20T02:50:29.374Z,7.30
2023-04-20T02:50:55.436Z,7.30
2023-04-20T02:51:18.160Z,7.30
2023-04-20T02:51:40.842Z,7.40
2023-04-20T02:52:03.549Z,7.40
2023-04-20T02:52:26.283Z,7.40
2023-04-20T02:52:49.073Z,7.40
2023-04-20T02:53:13.129Z,7.40
2023-04-20T02:53:35.948Z,7.40
2023-04-20T02:53:58.654Z,7.40
2023-04-20T02:54:21.320Z,7.40
2023-04-20T02:54:46.561Z,7.50
2023-04-20T02:55:11.694Z,7.40
2023-04-20T02:55:36.658Z,7.50
2023-04-20T02:55:59.274Z,7.40
2023-04-20T02:56:22.902Z,7.40
2023-04-20T02:56:48.143Z,7.40
2023-04-20T02:57:11.833Z,7.50
2023-04-20T02:57:34.518Z,7.40
2023-04-20T02:58:00.279Z,7.40
2023-04-20T02:58:22.958Z,7.40
2023-04-20T02:58:48.550Z,7.40
2023-04-20T02:59:11.405Z,7.40
2023-04-20T02:59:34.101Z,7.40
2023-04-20T02:59:56.779Z,7.40
2023-04-20T03:00:20.488Z,7.50
2023-04-20T03:00:43.180Z,7.50
2023-04-20T03:01:06.012Z,7.50
2023-04-20T03:01:31.192Z,7.50
2023-04-20T03:01:54.111Z,7.50
2023-04-20T03:02:16.938Z,7.40
2023-04-20T03:02:40.099Z,7.50
2023-04-20T03:03:06.120Z,7.40
2023-04-20T03:03:29.243Z,7.40
2023-04-20T03:03:52.753Z,7.50
2023-04-20T03:04:18.401Z,7.50
2023-04-20T03:04:41.220Z,7.50
2023-04-20T03:05:04.450Z,7.50
2023-04-20T03:05:27.075Z,7.50
2023-04-20T03:05:49.993Z,7.50
2023-04-20T03:06:12.644Z,7.50
2023-04-20T03:06:38.660Z,7.50
2023-04-20T03:07:01.643Z,7.50
2023-04-20T03:07:24.317Z,7.50
2023-04-20T03:07:50.080Z,7.50
2023-04-20T03:08:14.226Z,7.50
2023-04-20T03:08:37.200Z,7.50
2023-04-20T03:08:59.910Z,7.50
2023-04-20T03:09:22.663Z,7.50
2023-04-20T03:09:45.370Z,7.40
2023-04-20T03:10:09.490Z,7.40
2023-04-20T03:10:32.174Z,7.40
2023-04-20T03:10:57.117Z,7.30
2023-04-20T03:11:19.841Z,7.30
2023-04-20T03:11:42.546Z,7.30
2023-04-20T03:12:06.578Z,7.40
2023-04-20T03:12:29.664Z,7.30
2023-04-20T03:12:52.386Z,7.30
2023-04-20T03:13:15.209Z,7.30
2023-04-20T03:13:40.346Z,7.30
2023-04-20T03:14:03.049Z,7.40
2023-04-20T03:14:26.099Z,7.30
2023-04-20T03:14:48.864Z,7.40
2023-04-20T03:15:11.847Z,7.40
2023-04-20T03:15:34.576Z,7.30
2023-04-20T03:15:57.349Z,7.40
2023-04-20T03:16:20.208Z,7.40
2023-04-20T03:16:43.003Z,7.40
2023-04-20T03:17:06.729Z,7.40
2023-04-20T03:17:29.481Z,7.40
2023-04-20T03:17:52.882Z,7.40
2023-04-20T03:18:15.589Z,7.40
2023-04-20T03:18:38.318Z,7.40
2023-04-20T03:19:01.072Z,7.40
2023-04-20T03:19:24.347Z,7.40
2023-04-20T03:19:47.283Z,7.50
2023-04-20T03:20:11.383Z,7.40
2023-04-20T03:20:34.125Z,7.40
2023-04-20T03:20:56.846Z,7.40
2023-04-20T03:21:19.568Z,7.40
2023-04-20T03:21:42.542Z,7.50
2023-04-20T03:22:05.428Z,7.40
2023-04-20T03:22:28.121Z,7.40
2023-04-20T03:22:51.367Z,7.50
2023-04-20T03:23:15.606Z,7.50
2023-04-20T03:23:38.418Z,7.50
2023-04-20T03:24:03.636Z,7.50
2023-04-20T03:24:26.423Z,7.50
2023-04-20T03:24:52.898Z,7.50
2023-04-20T03:25:16.421Z,7.50
2023-04-20T03:25:39.338Z,7.50
2023-04-20T03:26:02.410Z,7.50
2023-04-20T03:26:27.689Z,7.50
2023-04-20T03:26:51.052Z,7.50
2023-04-20T03:27:16.326Z,7.50
2023-04-20T03:27:39.039Z,7.50
2023-04-20T03:28:01.773Z,7.50
2023-04-20T03:28:24.747Z,7.50
2023-04-20T03:28:47.553Z,7.50
2023-04-20T03:29:10.327Z,7.50
2023-04-20T03:29:34.171Z,7.50
2023-04-20T03:29:56.897Z,7.50
2023-04-20T03:30:22.009Z,7.50
2023-04-20T03:30:44.720Z,7.50
2023-04-20T03:31:09.921Z,7.50
2023-04-20T03:31:32.728Z,7.50
2023-04-20T03:31:55.987Z,7.50
2023-04-20T03:32:18.681Z,7.50
2023-04-20T03:32:41.437Z,7.50
2023-04-20T03:33:07.411Z,7.60
2023-04-20T03:33:30.427Z,7.60
2023-04-20T03:33:53.170Z,7.60
2023-04-20T03:34:15.885Z,7.60
2023-04-20T03:34:38.598Z,7.60
2023-04-20T03:35:01.373Z,7.60
2023-04-20T03:35:26.301Z,7.60
2023-04-20T03:35:48.998Z,7.60
2023-04-20T03:36:12.584Z,7.60
2023-04-20T03:36:35.996Z,7.60
2023-04-20T03:36:59.053Z,7.60
2023-04-20T03:37:21.770Z,7.60
2023-04-20T03:37:44.678Z,7.60
2023-04-20T03:38:09.776Z,7.60
2023-04-20T03:38:33.921Z,7.60
2023-04-20T03:38:56.667Z,7.60
2023-04-20T03:39:19.556Z,7.60
2023-04-20T03:39:42.286Z,7.60
2023-04-20T03:40:07.205Z,7.60
2023-04-20T03:40:29.940Z,7.60
2023-04-20T03:40:55.169Z,7.60
2023-04-20T03:41:17.922Z,7.50
2023-04-20T03:41:40.667Z,7.60
2023-04-20T03:42:04.021Z,7.50
2023-04-20T03:42:26.666Z,7.50
2023-04-20T03:42:49.431Z,7.50
2023-04-20T03:43:12.467Z,7.50
2023-04-20T03:43:35.221Z,7.50
2023-04-20T03:43:57.980Z,7.50
2023-04-20T03:44:20.667Z,7.50
2023-04-20T03:44:43.389Z,7.50
2023-04-20T03:45:07.103Z,7.50
2023-04-20T03:45:29.929Z,7.50
2023-04-20T03:45:52.888Z,7.50
2023-04-20T03:46:18.294Z,7.50
2023-04-20T03:46:41.320Z,7.50
2023-04-20T03:47:06.430Z,7.50
2023-04-20T03:47:29.435Z,7.50
2023-04-20T03:47:52.222Z,7.50
2023-04-20T03:48:14.884Z,7.50
2023-04-20T03:48:37.635Z,7.50
2023-04-20T03:49:00.533Z,7.50
2023-04-20T03:49:25.209Z,7.50
2023-04-20T03:49:48.069Z,7.50
2023-04-20T03:50:11.264Z,7.40
2023-04-20T03:50:36.121Z,7.50
2023-04-20T03:50:59.378Z,7.50
2023-04-20T03:51:22.101Z,7.40
2023-04-20T03:51:47.062Z,7.50
2023-04-20T03:52:09.705Z,7.50
2023-04-20T03:52:35.424Z,7.50
2023-04-20T03:53:00.318Z,7.50
2023-04-20T03:53:23.370Z,7.50
2023-04-20T03:53:47.630Z,7.50
2023-04-20T03:54:11.296Z,7.50
2023-04-20T03:54:37.278Z,7.50
2023-04-20T03:54:59.994Z,7.50
2023-04-20T03:55:24.962Z,7.50
2023-04-20T03:55:47.797Z,7.50
2023-04-20T03:56:12.811Z,7.40
2023-04-20T03:56:35.605Z,7.40
2023-04-20T03:56:58.752Z,7.40
2023-04-20T03:57:21.617Z,7.40
2023-04-20T03:57:46.892Z,7.40
2023-04-20T03:58:09.650Z,7.50
2023-04-20T03:58:32.428Z,7.40
2023-04-20T03:58:55.202Z,7.40
2023-04-20T03:59:18.194Z,7.40
2023-04-20T03:59:41.281Z,7.40
2023-04-20T04:00:04.816Z,7.40
2023-04-20T04:00:27.463Z,7.40
2023-04-20T04:00:50.203Z,7.40
2023-04-20T04:01:13.496Z,7.40
2023-04-20T04:01:39.548Z,7.50
2023-04-20T04:02:02.887Z,7.40
2023-04-20T04:02:28.114Z,7.40
2023-04-20T04:02:53.403Z,7.40
2023-04-20T04:03:16.686Z,7.40
2023-04-20T04:03:39.923Z,7.30
2023-04-20T04:04:03.048Z,7.30
2023-04-20T04:04:26.625Z,7.40
2023-04-20T04:04:49.549Z,7.40
2023-04-20T04:05:15.448Z,7.30
2023-04-20T04:05:38.158Z,7.30
2023-04-20T04:06:00.848Z,7.30
2023-04-20T04:06:26.477Z,7.30
2023-04-20T04:06:49.223Z,7.30
2023-04-20T04:07:12.166Z,7.30
2023-04-20T04:07:34.896Z,7.30
2023-04-20T04:07:57.610Z,7.30
2023-04-20T04:08:20.309Z,7.40
2023-04-20T04:08:43.130Z,7.40
2023-04-20T04:09:07.445Z,7.40
2023-04-20T04:09:30.213Z,7.40
2023-04-20T04:09:52.904Z,7.40
2023-04-20T04:10:17.862Z,7.40
2023-04-20T04:10:40.628Z,7.40
2023-04-20T04:11:03.402Z,7.50
2023-04-20T04:11:26.906Z,7.50
2023-04-20T04:11:49.632Z,7.50
2023-04-20T04:12:12.328Z,7.40
2023-04-20T04:12:35.047Z,7.50
2023-04-20T04:12:58.292Z,7.50
2023-04-20T04:13:21.065Z,7.50
2023-04-20T04:13:43.831Z,7.50
2023-04-20T04:14:06.561Z,7.40
2023-04-20T04:14:30.519Z,7.50
2023-04-20T04:14:53.303Z,7.40
2023-04-20T04:15:19.210Z,7.40
2023-04-20T04:15:41.990Z,7.50
2023-04-20T04:16:05.043Z,7.50
2023-04-20T04:16:27.763Z,7.50
2023-04-20T04:16:50.556Z,7.50
2023-04-20T04:17:14.740Z,7.50
2023-04-20T04:17:37.805Z,7.50
2023-04-20T04:18:00.856Z,7.50
2023-04-20T04:18:23.693Z,7.50
2023-04-20T04:18:47.142Z,7.50
2023-04-20T04:19:09.888Z,7.50
2023-04-20T04:19:32.642Z,7.50
2023-04-20T04:19:55.561Z,7.50
2023-04-20T04:20:18.544Z,7.50
2023-04-20T04:20:41.356Z,7.60
2023-04-20T04:21:04.575Z,7.60
2023-04-20T04:21:28.463Z,7.70
2023-04-20T04:21:51.250Z,7.60
2023-04-20T04:22:13.926Z,7.70
2023-04-20T04:22:36.599Z,7.60
2023-04-20T04:22:59.372Z,7.70
2023-04-20T04:23:22.073Z,7.70
2023-04-20T04:23:44.836Z,7.70
2023-04-20T04:24:09.772Z,7.70
2023-04-20T04:24:33.517Z,7.70
2023-04-20T04:24:56.322Z,7.70
2023-04-20T04:25:20.503Z,7.70
2023-04-20T04:25:43.547Z,7.70
2023-04-20T04:26:06.334Z,7.70
2023-04-20T04:26:29.010Z,7.70
2023-04-20T04:26:51.742Z,7.70
2023-04-20T04:27:15.731Z,7.70
2023-04-20T04:27:40.048Z,7.80
2023-04-20T04:28:05.747Z,7.80
2023-04-20T04:28:28.645Z,7.70
2023-04-20T04:28:52.016Z,7.70
2023-04-20T04:29:17.866Z,7.70
2023-04-20T04:29:42.028Z,7.70
2023-04-20T04:30:06.177Z,7.70
2023-04-20T04:30:29.594Z,7.70
2023-04-20T04:30:52.498Z,7.70
2023-04-20T04:31:18.305Z,7.70
2023-04-20T04:31:41.041Z,7.70
2023-04-20T04:32:04.380Z,7.70
2023-04-20T04:32:27.053Z,7.70
2023-04-20T04:32:50.416Z,7.70
2023-04-20T04:33:14.886Z,7.70
2023-04-20T04:33:37.752Z,7.70
2023-04-20T04:34:02.716Z,7.70
2023-04-20T04:34:29.963Z,7.80
2023-04-20T04:34:53.333Z,7.70
2023-04-20T04:35:18.616Z,7.70
2023-04-20T04:35:41.963Z,7.70
2023-04-20T04:36:06.233Z,7.70
2023-04-20T04:36:29.321Z,7.70
2023-04-20T04:36:52.159Z,7.70
2023-04-20T04:37:17.307Z,7.80
2023-04-20T04:37:42.285Z,7.70
2023-04-20T04:38:04.960Z,7.80
2023-04-20T04:38:29.925Z,7.70
2023-04-20T04:38:52.959Z,7.70
2023-04-20T04:39:20.237Z,7.70
2023-04-20T04:39:42.894Z,7.70
2023-04-20T04:40:07.576Z,7.70
2023-04-20T04:40:30.482Z,7.60
2023-04-20T04:40:53.997Z,7.60
2023-04-20T04:41:17.601Z,7.70
2023-04-20T04:41:42.678Z,7.70
2023-04-20T04:42:06.335Z,7.70
2023-04-20T04:42:31.514Z,7.70
2023-04-20T04:42:56.603Z,7.70
2023-04-20T04:43:19.873Z,7.70
2023-04-20T04:43:45.047Z,7.70
2023-04-20T04:44:09.145Z,7.70
2023-04-20T04:44:34.020Z,7.70
2023-04-20T04:44:57.127Z,7.70
2023-04-20T04:45:22.357Z,7.70
2023-04-20T04:45:45.783Z,7.70
2023-04-20T04:46:13.918Z,7.60
2023-04-20T04:46:37.079Z,7.60
2023-04-20T04:47:00.008Z,7.60
2023-04-20T04:47:23.128Z,7.60
2023-04-20T04:47:46.471Z,7.70
2023-04-20T04:48:12.236Z,7.60
2023-04-20T04:48:36.014Z,7.60
2023-04-20T04:49:01.175Z,7.70
2023-04-20T04:49:25.321Z,7.60
2023-04-20T04:49:48.253Z,7.70
2023-04-20T04:50:13.104Z,7.70
2023-04-20T04:50:36.210Z,7.70
2023-04-20T04:50:58.894Z,7.60
2023-04-20T04:51:21.600Z,7.70
2023-04-20T04:51:44.305Z,7.70
2023-04-20T04:52:08.036Z,7.60
2023-04-20T04:52:33.772Z,7.60
2023-04-20T04:52:56.985Z,7.60
2023-04-20T04:53:19.823Z,7.60
2023-04-20T04:53:45.298Z,7.60
2023-04-20T04:54:08.012Z,7.60
2023-04-20T04:54:35.346Z,7.70
2023-04-20T04:54:58.092Z,7.60
2023-04-20T04:55:23.294Z,7.70
2023-04-20T04:55:46.819Z,7.70
2023-04-20T04:56:09.470Z,7.70
2023-04-20T04:56:32.158Z,7.70
2023-04-20T04:56:54.885Z,7.70
2023-04-20T04:57:17.619Z,7.80
2023-04-20T04:57:40.329Z,7.70
2023-04-20T04:58:03.826Z,7.70
2023-04-20T04:58:26.649Z,7.70
2023-04-20T04:58:49.410Z,7.70
2023-04-20T04:59:12.155Z,7.70
2023-04-20T04:59:38.075Z,7.80
2023-04-20T05:00:00.741Z,7.80
2023-04-20T05:00:23.765Z,7.80
2023-04-20T05:00:49.063Z,7.80
2023-04-20T05:01:11.831Z,7.80
2023-04-20T05:01:34.607Z,7.80
2023-04-20T05:01:57.453Z,7.80
2023-04-20T05:02:20.656Z,7.80
2023-04-20T05:02:43.838Z,7.80
2023-04-20T05:03:06.847Z,7.80
2023-04-20T05:03:29.979Z,7.80
2023-04-20T05:03:52.888Z,7.80
2023-04-20T05:04:15.953Z,7.70
2023-04-20T05:04:39.042Z,7.70
2023-04-20T05:05:02.087Z,7.80
2023-04-20T05:05:25.611Z,7.80
2023-04-20T05:05:48.324Z,7.70
2023-04-20T05:06:11.043Z,7.70
2023-04-20T05:06:33.823Z,7.70
2023-04-20T05:06:58.973Z,7.70
2023-04-20T05:07:21.738Z,7.70
2023-04-20T05:07:44.500Z,7.70
2023-04-20T05:08:07.203Z,7.70
2023-04-20T05:08:32.002Z,7.70
2023-04-20T05:08:56.913Z,7.70
2023-04-20T05:09:20.072Z,7.70
2023-04-20T05:09:44.569Z,7.70
2023-04-20T05:10:08.875Z,7.70
2023-04-20T05:10:31.593Z,7.70
2023-04-20T05:10:54.290Z,7.70
2023-04-20T05:11:16.999Z,7.70
2023-04-20T05:11:39.762Z,7.80
2023-04-20T05:12:03.254Z,7.80
2023-04-20T05:12:26.032Z,7.90
2023-04-20T05:12:48.886Z,7.90
2023-04-20T05:13:11.848Z,7.90
2023-04-20T05:13:36.793Z,7.90
2023-04-20T05:13:59.590Z,7.90
2023-04-20T05:14:22.612Z,7.90
2023-04-20T05:14:45.404Z,7.90
2023-04-20T05:15:09.466Z,8.00